createdAt,value
2023-11-30T00:00:17.568Z,99342.19
2023-11-30T00:02:48.384Z,99340.27
2023-11-30T00:05:22.790Z,99337.50
2023-11-30T00:07:54.577Z,99332.48
2023-11-30T00:10:25.390Z,99336.08
2023-11-30T00:12:56.554Z,99332.46
2023-11-30T00:15:27.426Z,99331.52
2023-11-30T00:17:58.398Z,99329.02
2023-11-30T00:20:29.309Z,99333.45
2023-11-30T00:23:00.073Z,99333.50
2023-11-30T00:25:30.837Z,99337.12
2023-11-30T00:28:01.684Z,99332.86
2023-11-30T00:30:32.566Z,99333.16
2023-11-30T00:33:03.645Z,99330.17
2023-11-30T00:35:34.529Z,99332.31
2023-11-30T00:38:05.518Z,99332.30
2023-11-30T00:40:38.964Z,99333.83
2023-11-30T00:43:10.032Z,99334.16
2023-11-30T00:45:40.944Z,99332.02
2023-11-30T00:48:11.899Z,99333.05
2023-11-30T00:50:42.861Z,99334.98
2023-11-30T00:53:13.745Z,99333.65
2023-11-30T00:55:44.533Z,99330.31
2023-11-30T00:58:15.329Z,99330.71
2023-11-30T01:00:46.641Z,99327.09
2023-11-30T01:03:17.471Z,99330.91
2023-11-30T01:05:48.322Z,99326.38
2023-11-30T01:08:19.107Z,99323.89
2023-11-30T01:10:49.943Z,99325.34
2023-11-30T01:13:20.701Z,99326.76
2023-11-30T01:15:51.693Z,99327.33
2023-11-30T01:18:22.593Z,99329.59
2023-11-30T01:20:53.417Z,99327.98
2023-11-30T01:23:24.400Z,99330.64
2023-11-30T01:25:55.139Z,99327.60
2023-11-30T01:28:25.995Z,99324.09
2023-11-30T01:30:56.729Z,99325.56
2023-11-30T01:33:27.639Z,99323.25
2023-11-30T01:35:58.523Z,99327.90
2023-11-30T01:38:30.202Z,99327.27
2023-11-30T01:41:00.969Z,99326.95
2023-11-30T01:43:31.769Z,99320.10
2023-11-30T01:46:04.311Z,99320.58
2023-11-30T01:48:35.753Z,99315.55
2023-11-30T01:51:09.366Z,99313.84
2023-11-30T01:53:40.897Z,99312.36
2023-11-30T01:56:13.382Z,99309.52
2023-11-30T01:58:45.074Z,99311.83
2023-11-30T02:01:16.029Z,99306.52
2023-11-30T02:03:47.553Z,99301.73
2023-11-30T02:06:20.333Z,99299.50
2023-11-30T02:08:51.364Z,99300.66
2023-11-30T02:11:22.295Z,99297.55
2023-11-30T02:13:53.438Z,99299.24
2023-11-30T02:16:24.318Z,99299.92
2023-11-30T02:18:55.236Z,99301.30
2023-11-30T02:21:26.240Z,99300.58
2023-11-30T02:23:57.112Z,99303.30
2023-11-30T02:26:27.903Z,99301.20
2023-11-30T02:28:58.622Z,99300.92
2023-11-30T02:31:29.436Z,99299.96
2023-11-30T02:34:00.329Z,99299.82
2023-11-30T02:36:31.168Z,99298.53
2023-11-30T02:39:02.053Z,99300.69
2023-11-30T02:41:32.843Z,99299.19
2023-11-30T02:44:03.686Z,99295.84
2023-11-30T02:46:34.549Z,99292.20
2023-11-30T02:49:05.317Z,99296.95
2023-11-30T02:51:36.851Z,99295.33
2023-11-30T02:54:07.684Z,99298.23
2023-11-30T02:56:42.878Z,99296.06
2023-11-30T02:59:13.608Z,99295.80
2023-11-30T03:01:48.528Z,99293.31
2023-11-30T03:04:20.161Z,99298.14
2023-11-30T03:06:52.800Z,99294.66
2023-11-30T03:09:23.695Z,99294.23
2023-11-30T03:11:55.117Z,99291.59
2023-11-30T03:14:25.842Z,99287.93
2023-11-30T03:16:57.753Z,99284.52
2023-11-30T03:19:29.001Z,99280.29
2023-11-30T03:21:59.791Z,99277.54
2023-11-30T03:24:31.698Z,99273.81
2023-11-30T03:27:02.524Z,99271.77
2023-11-30T03:29:33.245Z,99271.84
2023-11-30T03:32:04.011Z,99271.40
2023-11-30T03:34:34.880Z,99269.95
2023-11-30T03:37:05.871Z,99262.30
2023-11-30T03:39:36.781Z,99258.13
2023-11-30T03:42:08.146Z,99260.09
2023-11-30T03:44:38.918Z,99264.23
2023-11-30T03:47:09.721Z,99266.10
2023-11-30T03:49:40.971Z,99266.67
2023-11-30T03:52:11.775Z,99264.25
2023-11-30T03:54:42.779Z,99271.02
2023-11-30T03:57:13.823Z,99267.45
2023-11-30T03:59:44.667Z,99267.08
2023-11-30T04:02:15.552Z,99264.84
2023-11-30T04:04:46.295Z,99262.60
2023-11-30T04:07:17.127Z,99263.98
2023-11-30T04:09:48.741Z,99265.71
2023-11-30T04:12:19.549Z,99265.80
2023-11-30T04:14:50.289Z,99263.04
2023-11-30T04:17:21.059Z,99261.58
2023-11-30T04:19:51.858Z,99261.67
2023-11-30T04:22:23.025Z,99256.55
2023-11-30T04:24:54.815Z,99256.80
2023-11-30T04:27:25.670Z,99252.40
2023-11-30T04:29:56.569Z,99252.67
2023-11-30T04:32:27.865Z,99248.63
2023-11-30T04:34:58.642Z,99249.27
2023-11-30T04:37:29.482Z,99250.06
2023-11-30T04:40:00.473Z,99245.99
2023-11-30T04:42:31.797Z,99248.04
2023-11-30T04:45:04.031Z,99246.56
2023-11-30T04:47:34.849Z,99247.15
2023-11-30T04:50:07.264Z,99245.09
2023-11-30T04:52:38.033Z,99240.16
2023-11-30T04:55:10.849Z,99242.92
2023-11-30T04:57:41.617Z,99240.31
2023-11-30T05:00:14.544Z,99246.08
2023-11-30T05:02:56.422Z,99247.10
2023-11-30T05:05:27.544Z,99242.79
2023-11-30T05:07:58.291Z,99246.38
2023-11-30T05:10:28.978Z,99246.09
2023-11-30T05:12:59.889Z,99238.61
2023-11-30T05:15:30.731Z,99238.66
2023-11-30T05:18:01.689Z,99237.66
2023-11-30T05:20:32.449Z,99238.83
2023-11-30T05:23:03.242Z,99233.80
2023-11-30T05:25:34.496Z,99237.84
2023-11-30T05:28:07.732Z,99238.88
2023-11-30T05:30:38.685Z,99243.95
2023-11-30T05:33:13.619Z,99238.08
2023-11-30T05:35:46.188Z,99240.91
2023-11-30T05:38:17.011Z,99240.40
2023-11-30T05:40:48.267Z,99240.88
2023-11-30T05:43:21.821Z,99242.72
2023-11-30T05:45:52.752Z,99241.86
2023-11-30T05:48:23.881Z,99238.65
2023-11-30T05:50:54.826Z,99235.95
2023-11-30T05:53:25.641Z,99240.46
2023-11-30T05:55:56.621Z,99239.96
2023-11-30T05:58:29.775Z,99243.63
2023-11-30T06:01:00.637Z,99240.23
2023-11-30T06:03:32.064Z,99242.10
2023-11-30T06:06:03.258Z,99243.23
2023-11-30T06:08:34.111Z,99243.03
2023-11-30T06:11:05.775Z,99246.20
2023-11-30T06:13:36.806Z,99247.60
2023-11-30T06:16:08.950Z,99250.16
2023-11-30T06:18:39.754Z,99251.40
2023-11-30T06:21:12.886Z,99256.52
2023-11-30T06:23:45.168Z,99251.75
2023-11-30T06:26:18.778Z,99246.62
2023-11-30T06:28:49.597Z,99246.30
2023-11-30T06:31:20.470Z,99246.99
2023-11-30T06:33:51.940Z,99253.05
2023-11-30T06:36:23.014Z,99254.77
2023-11-30T06:38:54.155Z,99254.61
2023-11-30T06:41:24.941Z,99259.48
2023-11-30T06:43:56.209Z,99254.79
2023-11-30T06:46:27.160Z,99257.48
2023-11-30T06:48:58.612Z,99258.20
2023-11-30T06:51:29.592Z,99260.92
2023-11-30T06:54:00.662Z,99257.80
2023-11-30T06:56:31.628Z,99260.89
2023-11-30T06:59:02.693Z,99259.30
2023-11-30T07:01:34.029Z,99261.56
2023-11-30T07:04:09.697Z,99261.64
2023-11-30T07:06:41.711Z,99258.02
2023-11-30T07:09:13.694Z,99258.73
2023-11-30T07:11:44.653Z,99257.30
2023-11-30T07:14:15.417Z,99262.38
2023-11-30T07:16:46.864Z,99255.73
2023-11-30T07:19:20.190Z,99258.63
2023-11-30T07:21:52.638Z,99265.20
2023-11-30T07:24:23.438Z,99268.11
2023-11-30T07:26:54.274Z,99270.55
2023-11-30T07:29:27.134Z,99273.29
2023-11-30T07:31:59.552Z,99275.56
2023-11-30T07:34:30.589Z,99277.68
2023-11-30T07:37:02.623Z,99275.91
2023-11-30T07:39:33.418Z,99281.67
2023-11-30T07:42:07.576Z,99281.73
2023-11-30T07:44:39.819Z,99282.60
2023-11-30T07:47:12.237Z,99283.83
2023-11-30T07:49:43.192Z,99281.40
2023-11-30T07:52:14.639Z,99282.98
2023-11-30T07:54:45.604Z,99278.17
2023-11-30T07:57:19.796Z,99279.73
2023-11-30T07:59:50.858Z,99281.99
2023-11-30T08:02:23.105Z,99287.80
2023-11-30T08:04:54.168Z,99290.30
2023-11-30T08:07:25.101Z,99289.64
2023-11-30T08:09:55.894Z,99292.98
2023-11-30T08:12:27.036Z,99294.48
2023-11-30T08:14:57.879Z,99295.33
2023-11-30T08:17:29.497Z,99297.70
2023-11-30T08:20:03.955Z,99303.73
2023-11-30T08:22:35.022Z,99300.05
2023-11-30T08:25:06.785Z,99304.48
2023-11-30T08:27:38.014Z,99305.94
2023-11-30T08:30:15.936Z,99304.16
2023-11-30T08:32:47.297Z,99303.92
2023-11-30T08:35:19.707Z,99301.66
2023-11-30T08:37:50.555Z,99302.56
2023-11-30T08:40:23.764Z,99307.00
2023-11-30T08:42:54.936Z,99306.28
2023-11-30T08:45:28.771Z,99310.39
2023-11-30T08:47:59.678Z,99308.96
2023-11-30T08:50:30.993Z,99307.14
2023-11-30T08:53:01.760Z,99307.05
2023-11-30T08:55:34.098Z,99308.15
2023-11-30T08:58:05.766Z,99301.20
2023-11-30T09:00:36.779Z,99302.98
2023-11-30T09:03:07.607Z,99307.88
2023-11-30T09:05:38.382Z,99304.09
2023-11-30T09:08:10.495Z,99305.46
2023-11-30T09:10:41.395Z,99306.74
2023-11-30T09:13:12.580Z,99306.44
2023-11-30T09:15:43.676Z,99301.14
2023-11-30T09:18:14.641Z,99297.08
2023-11-30T09:20:45.469Z,99289.21
2023-11-30T09:23:19.063Z,99288.08
2023-11-30T09:25:50.089Z,99286.91
2023-11-30T09:28:21.302Z,99280.02
2023-11-30T09:30:52.253Z,99277.73
2023-11-30T09:33:23.170Z,99277.27
2023-11-30T09:35:54.125Z,99268.77
2023-11-30T09:38:24.839Z,99269.63
2023-11-30T09:40:56.578Z,99264.63
2023-11-30T09:43:27.382Z,99264.53
2023-11-30T09:45:58.187Z,99264.23
2023-11-30T09:48:31.915Z,99262.11
2023-11-30T09:51:03.462Z,99261.02
2023-11-30T09:53:35.796Z,99261.19
2023-11-30T09:56:07.396Z,99260.43
2023-11-30T09:58:38.797Z,99256.75
2023-11-30T10:01:11.555Z,99247.91
2023-11-30T10:03:45.140Z,99247.89
2023-11-30T10:06:16.421Z,99245.22
2023-11-30T10:08:47.422Z,99240.58
2023-11-30T10:11:21.144Z,99233.98
2023-11-30T10:13:52.021Z,99233.34
2023-11-30T10:16:23.310Z,99230.52
2023-11-30T10:18:54.435Z,99223.91
2023-11-30T10:21:25.429Z,99222.77
2023-11-30T10:23:58.143Z,99223.65
2023-11-30T10:26:32.395Z,99225.22
2023-11-30T10:29:07.996Z,99227.59
2023-11-30T10:31:40.445Z,99227.00
2023-11-30T10:34:16.840Z,99232.39
2023-11-30T10:36:48.381Z,99229.67
2023-11-30T10:39:24.566Z,99229.10
2023-11-30T10:41:58.846Z,99226.15
2023-11-30T10:44:32.054Z,99225.70
2023-11-30T10:47:03.496Z,99226.46
2023-11-30T10:49:34.616Z,99233.43
2023-11-30T10:52:07.880Z,99235.15
2023-11-30T10:54:45.273Z,99237.36
2023-11-30T10:57:16.629Z,99235.86
2023-11-30T10:59:49.219Z,99235.52
2023-11-30T11:02:20.193Z,99235.19
2023-11-30T11:04:51.064Z,99236.20
2023-11-30T11:07:22.652Z,99239.77
2023-11-30T11:09:58.636Z,99241.78
2023-11-30T11:12:41.428Z,99239.77
2023-11-30T11:15:16.744Z,99237.88
2023-11-30T11:17:53.352Z,99229.93
2023-11-30T11:20:27.073Z,99228.91
2023-11-30T11:22:59.335Z,99234.98
2023-11-30T11:25:30.199Z,99233.96
2023-11-30T11:28:02.003Z,99233.78
2023-11-30T11:30:33.546Z,99229.20
2023-11-30T11:33:06.378Z,99226.69
2023-11-30T11:35:37.192Z,99230.73
2023-11-30T11:38:07.976Z,99227.69
2023-11-30T11:40:42.366Z,99229.55
2023-11-30T11:43:13.118Z,99226.33
2023-11-30T11:45:44.298Z,99226.48
2023-11-30T11:48:18.467Z,99224.45
2023-11-30T11:50:59.520Z,99225.27
2023-11-30T11:53:30.353Z,99220.39
2023-11-30T11:56:07.843Z,99216.48
2023-11-30T11:58:40.433Z,99218.50
2023-11-30T12:01:11.260Z,99219.16
2023-11-30T12:03:51.599Z,99214.95
2023-11-30T12:06:32.089Z,99220.16
2023-11-30T12:09:14.257Z,99218.48
2023-11-30T12:11:45.394Z,99219.46
2023-11-30T12:14:16.832Z,99219.62
2023-11-30T12:16:47.725Z,99217.42
2023-11-30T12:19:21.143Z,99216.56
2023-11-30T12:21:52.284Z,99220.27
2023-11-30T12:24:23.621Z,99211.48
2023-11-30T12:26:54.512Z,99209.79
2023-11-30T12:29:25.365Z,99205.05
2023-11-30T12:31:57.038Z,99203.88
2023-11-30T12:34:28.071Z,99202.66
2023-11-30T12:37:04.562Z,99205.69
2023-11-30T12:39:35.650Z,99200.95
2023-11-30T12:42:09.101Z,99198.95
2023-11-30T12:44:39.827Z,99200.12
2023-11-30T12:47:11.976Z,99200.46
2023-11-30T12:49:43.575Z,99202.15
2023-11-30T12:52:14.486Z,99204.00
2023-11-30T12:54:45.720Z,99204.17
2023-11-30T12:57:16.560Z,99205.88
2023-11-30T12:59:47.817Z,99204.20
2023-11-30T13:02:18.800Z,99202.19
2023-11-30T13:04:51.076Z,99202.54
2023-11-30T13:07:24.730Z,99195.27
2023-11-30T13:09:55.587Z,99195.44
2023-11-30T13:12:27.946Z,99191.21
2023-11-30T13:14:58.982Z,99190.21
2023-11-30T13:17:29.782Z,99187.83
2023-11-30T13:20:00.533Z,99187.81
2023-11-30T13:22:31.333Z,99187.81
2023-11-30T13:25:02.772Z,99190.17
2023-11-30T13:27:34.328Z,99190.67
2023-11-30T13:30:05.530Z,99191.52
2023-11-30T13:32:36.670Z,99192.17
2023-11-30T13:35:10.344Z,99191.49
2023-11-30T13:37:41.313Z,99186.09
2023-11-30T13:40:13.286Z,99180.54
2023-11-30T13:42:44.277Z,99181.55
2023-11-30T13:45:15.381Z,99179.19
2023-11-30T13:47:49.028Z,99178.19
2023-11-30T13:50:30.461Z,99177.15
2023-11-30T13:53:11.696Z,99179.35
2023-11-30T13:55:43.790Z,99177.99
2023-11-30T13:58:14.573Z,99175.47
2023-11-30T14:00:45.426Z,99176.80
2023-11-30T14:03:17.653Z,99172.23
2023-11-30T14:05:48.844Z,99168.84
2023-11-30T14:08:19.678Z,99165.46
2023-11-30T14:10:52.396Z,99167.14
2023-11-30T14:13:23.375Z,99165.42
2023-11-30T14:15:54.293Z,99167.09
2023-11-30T14:18:25.330Z,99164.86
2023-11-30T14:20:56.302Z,99165.84
2023-11-30T14:23:28.230Z,99167.48
2023-11-30T14:26:01.305Z,99168.63
2023-11-30T14:28:32.423Z,99169.09
2023-11-30T14:31:06.618Z,99170.58
2023-11-30T14:33:37.450Z,99166.34
2023-11-30T14:36:09.482Z,99170.52
2023-11-30T14:38:41.744Z,99172.19
2023-11-30T14:41:12.843Z,99172.33
2023-11-30T14:43:43.850Z,99174.83
2023-11-30T14:46:15.370Z,99176.31
2023-11-30T14:48:46.214Z,99177.81
2023-11-30T14:51:17.080Z,99174.42
2023-11-30T14:53:48.567Z,99173.71
2023-11-30T14:56:19.343Z,99177.73
2023-11-30T14:58:50.166Z,99178.54
2023-11-30T15:01:21.354Z,99183.73
2023-11-30T15:03:52.425Z,99184.04
2023-11-30T15:06:24.699Z,99180.65
2023-11-30T15:08:55.459Z,99180.10
2023-11-30T15:11:26.363Z,99179.06
2023-11-30T15:13:58.216Z,99182.91
2023-11-30T15:16:30.177Z,99177.48
2023-11-30T15:19:05.217Z,99174.77
2023-11-30T15:21:36.219Z,99174.06
2023-11-30T15:24:07.585Z,99171.52
2023-11-30T15:26:38.365Z,99171.98
2023-11-30T15:29:09.218Z,99173.30
2023-11-30T15:31:40.077Z,99176.47
2023-11-30T15:34:11.214Z,99173.92
2023-11-30T15:36:45.367Z,99177.44
2023-11-30T15:39:17.503Z,99176.58
2023-11-30T15:41:48.573Z,99173.03
2023-11-30T15:44:19.397Z,99173.66
2023-11-30T15:46:51.113Z,99172.31
2023-11-30T15:49:22.062Z,99174.30
2023-11-30T15:51:52.841Z,99175.45
2023-11-30T15:54:23.635Z,99171.73
2023-11-30T15:56:54.561Z,99169.83
2023-11-30T15:59:25.337Z,99171.83
2023-11-30T16:01:56.356Z,99168.60
2023-11-30T16:04:27.267Z,99167.91
2023-11-30T16:06:58.119Z,99171.10
2023-11-30T16:09:28.950Z,99172.28
2023-11-30T16:12:00.180Z,99172.27
2023-11-30T16:14:31.058Z,99170.45
2023-11-30T16:17:03.226Z,99169.45
2023-11-30T16:19:36.835Z,99173.33
2023-11-30T16:22:07.792Z,99170.64
2023-11-30T16:24:38.568Z,99170.86
2023-11-30T16:27:09.993Z,99171.70
2023-11-30T16:29:40.858Z,99171.05
2023-11-30T16:32:11.938Z,99173.44
2023-11-30T16:34:44.054Z,99172.95
2023-11-30T16:37:14.928Z,99171.45
2023-11-30T16:39:47.186Z,99174.48
2023-11-30T16:42:18.044Z,99173.47
2023-11-30T16:44:51.803Z,99173.98
2023-11-30T16:47:22.580Z,99171.98
2023-11-30T16:49:53.323Z,99171.31
2023-11-30T16:52:24.126Z,99169.64
2023-11-30T16:54:55.056Z,99169.86
2023-11-30T16:57:25.926Z,99170.05
2023-11-30T16:59:57.464Z,99172.42
2023-11-30T17:02:29.200Z,99170.76
2023-11-30T17:05:00.177Z,99174.84
2023-11-30T17:07:31.033Z,99174.04
2023-11-30T17:10:01.924Z,99170.36
2023-11-30T17:12:32.871Z,99167.50
2023-11-30T17:15:05.027Z,99166.52
2023-11-30T17:17:37.195Z,99163.65
2023-11-30T17:20:09.731Z,99163.84
2023-11-30T17:22:40.530Z,99159.80
2023-11-30T17:25:12.216Z,99161.98
2023-11-30T17:27:42.989Z,99163.54
2023-11-30T17:30:15.331Z,99159.00
2023-11-30T17:32:46.247Z,99159.84
2023-11-30T17:35:17.810Z,99157.16
2023-11-30T17:37:48.886Z,99156.15
2023-11-30T17:40:20.137Z,99158.02
2023-11-30T17:42:51.169Z,99155.48
2023-11-30T17:45:22.174Z,99159.87
2023-11-30T17:47:55.028Z,99158.53
2023-11-30T17:50:28.529Z,99159.02
2023-11-30T17:52:59.451Z,99158.52
2023-11-30T17:55:32.047Z,99159.23
2023-11-30T17:58:03.410Z,99158.73
2023-11-30T18:00:36.064Z,99157.06
2023-11-30T18:03:07.133Z,99156.24
2023-11-30T18:05:50.054Z,99153.56
2023-11-30T18:08:24.308Z,99148.35
2023-11-30T18:10:57.057Z,99146.52
2023-11-30T18:13:29.965Z,99145.51
2023-11-30T18:16:03.690Z,99146.86
2023-11-30T18:18:35.163Z,99151.59
2023-11-30T18:21:06.639Z,99149.40
2023-11-30T18:23:37.851Z,99148.39
2023-11-30T18:26:10.979Z,99146.03
2023-11-30T18:28:47.779Z,99146.55
2023-11-30T18:31:22.534Z,99146.40
2023-11-30T18:33:55.019Z,99146.91
2023-11-30T18:36:30.251Z,99148.95
2023-11-30T18:39:00.065Z,99148.95
2023-11-30T18:41:31.052Z,99148.80
2023-11-30T18:44:06.096Z,99140.89
2023-11-30T18:46:39.842Z,99138.53
2023-11-30T18:49:10.959Z,99134.16
2023-11-30T18:51:42.044Z,99136.02
2023-11-30T18:54:18.718Z,99139.57
2023-11-30T18:56:49.776Z,99141.44
2023-11-30T18:59:21.926Z,99138.39
2023-11-30T19:01:53.040Z,99130.33
2023-11-30T19:04:24.118Z,99135.55
2023-11-30T19:06:56.003Z,99129.98
2023-11-30T19:09:27.242Z,99127.95
2023-11-30T19:12:00.205Z,99135.89
2023-11-30T19:14:40.746Z,99137.89
2023-11-30T19:17:11.721Z,99134.21
2023-11-30T19:19:42.636Z,99133.19
2023-11-30T19:22:18.351Z,99128.15
2023-11-30T19:24:54.177Z,99129.16
2023-11-30T19:27:25.131Z,99126.80
2023-11-30T19:29:56.259Z,99121.76
2023-11-30T19:32:31.359Z,99114.33
2023-11-30T19:35:02.928Z,99107.95
2023-11-30T19:37:33.904Z,99105.58
2023-11-30T19:40:05.427Z,99103.74
2023-11-30T19:42:36.401Z,99102.23
2023-11-30T19:45:09.012Z,99098.67
2023-11-30T19:47:42.256Z,99094.14
2023-11-30T19:50:13.475Z,99093.65
2023-11-30T19:52:44.287Z,99095.00
2023-11-30T19:55:16.088Z,99089.60
2023-11-30T19:57:53.995Z,99089.11
2023-11-30T20:00:26.169Z,99096.21
2023-11-30T20:02:57.861Z,99100.08
2023-11-30T20:05:28.830Z,99099.59
2023-11-30T20:08:00.561Z,99093.20
2023-11-30T20:10:32.281Z,99092.52
2023-11-30T20:13:05.123Z,99093.70
2023-11-30T20:15:36.276Z,99099.27
2023-11-30T20:18:09.917Z,99099.27
2023-11-30T20:20:40.885Z,99102.98
2023-11-30T20:23:11.779Z,99103.84
2023-11-30T20:25:42.789Z,99103.00
2023-11-30T20:28:13.935Z,99100.48
2023-11-30T20:30:47.763Z,99098.29
2023-11-30T20:33:18.713Z,99101.65
2023-11-30T20:35:49.755Z,99104.86
2023-11-30T20:38:20.624Z,99108.20
2023-11-30T20:40:52.150Z,99109.89
2023-11-30T20:43:27.417Z,99107.00
2023-11-30T20:45:59.051Z,99104.13
2023-11-30T20:48:30.188Z,99104.63
2023-11-30T20:51:01.347Z,99102.26
2023-11-30T20:53:32.174Z,99102.41
2023-11-30T20:56:03.976Z,99099.88
2023-11-30T20:58:40.049Z,99098.69
2023-11-30T21:01:13.065Z,99091.60
2023-11-30T21:11:59.617Z,99092.27
2023-11-30T21:14:31.224Z,99083.85
2023-11-30T21:17:02.785Z,99081.98
2023-11-30T21:19:34.241Z,99080.48
2023-11-30T21:22:06.143Z,99080.65
2023-11-30T21:24:39.967Z,99078.27
2023-11-30T21:27:12.076Z,99084.85
2023-11-30T21:29:43.611Z,99079.45
2023-11-30T21:32:15.057Z,99076.25
2023-11-30T21:34:46.942Z,99068.33
2023-11-30T21:37:18.281Z,99059.56
2023-11-30T21:39:49.846Z,99060.90
2023-11-30T21:42:24.753Z,99059.38
2023-11-30T21:44:56.500Z,99063.23
2023-11-30T21:47:28.239Z,99066.09
2023-11-30T21:49:59.755Z,99068.42
2023-11-30T21:52:31.281Z,99064.52
2023-11-30T21:55:08.139Z,99067.87
2023-11-30T21:57:39.727Z,99071.21
2023-11-30T22:00:13.635Z,99073.17
2023-11-30T22:02:46.403Z,99071.64
2023-11-30T22:05:26.786Z,99070.77
2023-11-30T22:08:04.442Z,99070.73
2023-11-30T22:10:35.745Z,99069.84
2023-11-30T22:13:07.047Z,99077.38
2023-11-30T22:15:38.539Z,99080.03
2023-11-30T22:18:09.936Z,99080.52
2023-11-30T22:20:44.940Z,99083.34
2023-11-30T22:23:16.366Z,99081.96
2023-11-30T22:25:53.341Z,99085.64
2023-11-30T22:28:27.470Z,99089.17
2023-11-30T22:30:59.015Z,99100.73
2023-11-30T22:33:31.354Z,99098.19
2023-11-30T22:36:02.968Z,99101.22
2023-11-30T22:38:41.183Z,99101.71
2023-11-30T22:41:17.358Z,99107.95
2023-11-30T22:43:48.607Z,99110.14
2023-11-30T22:46:20.899Z,99107.96
2023-11-30T22:48:52.661Z,99112.36
2023-11-30T22:51:24.920Z,99108.33
2023-11-30T22:53:56.214Z,99109.34
2023-11-30T22:56:30.284Z,99109.70
2023-11-30T22:59:01.641Z,99112.73
2023-11-30T23:01:33.045Z,99113.76
2023-11-30T23:04:04.762Z,99108.88
2023-11-30T23:06:36.373Z,99098.13
2023-11-30T23:09:08.003Z,99095.27
2023-11-30T23:11:39.287Z,99101.52
2023-11-30T23:14:11.259Z,99097.62
2023-11-30T23:16:42.537Z,99090.04
2023-11-30T23:19:14.914Z,99086.64
2023-11-30T23:21:46.619Z,99090.98
2023-11-30T23:24:25.744Z,99093.64
2023-11-30T23:27:00.544Z,99093.95
2023-11-30T23:29:36.995Z,99093.73
2023-11-30T23:32:09.845Z,99094.72
2023-11-30T23:34:41.500Z,99101.40
2023-11-30T23:37:13.016Z,99098.85
2023-11-30T23:39:44.674Z,99097.31
2023-11-30T23:42:16.015Z,99094.61
2023-11-30T23:44:47.691Z,99092.58
2023-11-30T23:47:18.970Z,99089.54
2023-11-30T23:49:50.198Z,99086.98
2023-11-30T23:52:21.492Z,99084.60
2023-11-30T23:54:52.786Z,99083.23
2023-11-30T23:57:24.103Z,99082.71
2023-11-30T23:59:55.488Z,99083.69
